sensor_id;sensor_type;location;lat;lon;timestamp;P1;durP1;ratioP1;P2;durP2;ratioP2
34433;SDS011;34290;48.562;13.384;2022-10-15T00:02:23;25.75;;;11.73;;
34433;SDS011;34290;48.562;13.384;2022-10-15T00:04:49;26.05;;;11.90;;
34433;SDS011;34290;48.562;13.384;2022-10-15T00:07:16;31.55;;;13.18;;
34433;SDS011;34290;48.562;13.384;2022-10-15T00:09:44;26.40;;;12.77;;
34433;SDS011;34290;48.562;13.384;2022-10-15T00:12:11;26.80;;;12.95;;
34433;SDS011;34290;48.562;13.384;2022-10-15T00:14:38;26.23;;;13.55;;
34433;SDS011;34290;48.562;13.384;2022-10-15T00:17:04;27.00;;;13.07;;
34433;SDS011;34290;48.562;13.384;2022-10-15T00:19:33;27.13;;;12.85;;
34433;SDS011;34290;48.562;13.384;2022-10-15T00:22:00;25.65;;;13.02;;
34433;SDS011;34290;48.562;13.384;2022-10-15T00:24:29;27.60;;;12.85;;
34433;SDS011;34290;48.562;13.384;2022-10-15T00:26:56;32.65;;;13.80;;
34433;SDS011;34290;48.562;13.384;2022-10-15T00:29:23;29.30;;;12.88;;
34433;SDS011;34290;48.562;13.384;2022-10-15T00:31:50;28.15;;;12.85;;
34433;SDS011;34290;48.562;13.384;2022-10-15T00:34:21;25.73;;;12.20;;
34433;SDS011;34290;48.562;13.384;2022-10-15T00:36:49;22.25;;;11.63;;
34433;SDS011;34290;48.562;13.384;2022-10-15T00:39:16;29.75;;;12.20;;
34433;SDS011;34290;48.562;13.384;2022-10-15T00:41:44;26.50;;;12.73;;
34433;SDS011;34290;48.562;13.384;2022-10-15T00:47:14;26.85;;;12.88;;
34433;SDS011;34290;48.562;13.384;2022-10-15T00:49:45;28.38;;;13.10;;
34433;SDS011;34290;48.562;13.384;2022-10-15T00:52:18;28.33;;;12.07;;
34433;SDS011;34290;48.562;13.384;2022-10-15T00:54:49;28.90;;;12.93;;
34433;SDS011;34290;48.562;13.384;2022-10-15T00:57:18;25.92;;;12.52;;
34433;SDS011;34290;48.562;13.384;2022-10-15T00:59:46;29.85;;;13.55;;
34433;SDS011;34290;48.562;13.384;2022-10-15T01:02:17;24.95;;;12.48;;
34433;SDS011;34290;48.562;13.384;2022-10-15T01:04:45;28.10;;;13.63;;
34433;SDS011;34290;48.562;13.384;2022-10-15T01:07:13;23.17;;;12.77;;
34433;SDS011;34290;48.562;13.384;2022-10-15T01:09:42;29.58;;;13.35;;
34433;SDS011;34290;48.562;13.384;2022-10-15T01:12:10;25.52;;;12.68;;
34433;SDS011;34290;48.562;13.384;2022-10-15T01:14:47;29.80;;;13.25;;
34433;SDS011;34290;48.562;13.384;2022-10-15T01:17:23;23.55;;;11.60;;
34433;SDS011;34290;48.562;13.384;2022-10-15T01:20:06;29.48;;;12.52;;
34433;SDS011;34290;48.562;13.384;2022-10-15T01:22:57;26.65;;;12.70;;
34433;SDS011;34290;48.562;13.384;2022-10-15T01:25:38;31.60;;;13.73;;
34433;SDS011;34290;48.562;13.384;2022-10-15T01:28:17;30.15;;;12.82;;
34433;SDS011;34290;48.562;13.384;2022-10-15T01:31:00;24.80;;;12.13;;
34433;SDS011;34290;48.562;13.384;2022-10-15T01:33:33;30.02;;;13.43;;
34433;SDS011;34290;48.562;13.384;2022-10-15T01:36:07;36.08;;;14.18;;
34433;SDS011;34290;48.562;13.384;2022-10-15T01:38:44;24.95;;;12.95;;
34433;SDS011;34290;48.562;13.384;2022-10-15T01:41:15;29.40;;;12.65;;
34433;SDS011;34290;48.562;13.384;2022-10-15T01:43:50;28.33;;;14.07;;
34433;SDS011;34290;48.562;13.384;2022-10-15T01:46:26;29.02;;;12.93;;
34433;SDS011;34290;48.562;13.384;2022-10-15T01:49:01;28.20;;;13.85;;
34433;SDS011;34290;48.562;13.384;2022-10-15T01:51:30;25.95;;;12.38;;
34433;SDS011;34290;48.562;13.384;2022-10-15T01:54:00;25.55;;;13.15;;
34433;SDS011;34290;48.562;13.384;2022-10-15T01:56:29;28.10;;;12.93;;
34433;SDS011;34290;48.562;13.384;2022-10-15T01:58:59;28.38;;;12.85;;
34433;SDS011;34290;48.562;13.384;2022-10-15T02:01:29;26.10;;;13.70;;
34433;SDS011;34290;48.562;13.384;2022-10-15T02:03:56;33.17;;;14.10;;
34433;SDS011;34290;48.562;13.384;2022-10-15T02:06:24;28.23;;;13.00;;
34433;SDS011;34290;48.562;13.384;2022-10-15T02:08:56;31.17;;;13.55;;
34433;SDS011;34290;48.562;13.384;2022-10-15T02:11:34;32.03;;;14.65;;
34433;SDS011;34290;48.562;13.384;2022-10-15T02:14:12;26.27;;;12.93;;
34433;SDS011;34290;48.562;13.384;2022-10-15T02:16:48;28.23;;;13.43;;
34433;SDS011;34290;48.562;13.384;2022-10-15T02:19:24;29.92;;;13.20;;
34433;SDS011;34290;48.562;13.384;2022-10-15T02:22:00;28.92;;;12.35;;
34433;SDS011;34290;48.562;13.384;2022-10-15T02:24:32;29.50;;;12.88;;
34433;SDS011;34290;48.562;13.384;2022-10-15T02:27:04;27.95;;;12.75;;
34433;SDS011;34290;48.562;13.384;2022-10-15T02:29:33;29.08;;;12.57;;
34433;SDS011;34290;48.562;13.384;2022-10-15T02:32:04;26.53;;;11.90;;
34433;SDS011;34290;48.562;13.384;2022-10-15T02:34:32;28.67;;;12.80;;
34433;SDS011;34290;48.562;13.384;2022-10-15T02:37:02;26.13;;;11.63;;
34433;SDS011;34290;48.562;13.384;2022-10-15T02:39:30;31.33;;;12.63;;
34433;SDS011;34290;48.562;13.384;2022-10-15T02:41:58;30.80;;;13.60;;
34433;SDS011;34290;48.562;13.384;2022-10-15T02:44:26;29.02;;;14.52;;
34433;SDS011;34290;48.562;13.384;2022-10-15T02:46:53;28.15;;;13.68;;
34433;SDS011;34290;48.562;13.384;2022-10-15T02:49:22;31.35;;;13.68;;
34433;SDS011;34290;48.562;13.384;2022-10-15T02:51:49;33.45;;;14.43;;
34433;SDS011;34290;48.562;13.384;2022-10-15T02:54:16;29.55;;;13.35;;
34433;SDS011;34290;48.562;13.384;2022-10-15T02:56:43;31.35;;;14.27;;
34433;SDS011;34290;48.562;13.384;2022-10-15T02:59:10;28.50;;;13.40;;
34433;SDS011;34290;48.562;13.384;2022-10-15T03:01:37;33.83;;;14.05;;
34433;SDS011;34290;48.562;13.384;2022-10-15T03:04:05;28.35;;;13.68;;
34433;SDS011;34290;48.562;13.384;2022-10-15T03:06:33;33.08;;;14.57;;
34433;SDS011;34290;48.562;13.384;2022-10-15T03:09:00;32.85;;;13.52;;
34433;SDS011;34290;48.562;13.384;2022-10-15T03:11:27;30.40;;;13.98;;
34433;SDS011;34290;48.562;13.384;2022-10-15T03:13:54;31.40;;;14.35;;
34433;SDS011;34290;48.562;13.384;2022-10-15T03:16:21;32.53;;;14.02;;
34433;SDS011;34290;48.562;13.384;2022-10-15T03:18:48;36.00;;;13.68;;
34433;SDS011;34290;48.562;13.384;2022-10-15T03:21:16;24.58;;;12.27;;
34433;SDS011;34290;48.562;13.384;2022-10-15T03:23:44;33.95;;;13.55;;
34433;SDS011;34290;48.562;13.384;2022-10-15T03:26:11;30.27;;;14.02;;
34433;SDS011;34290;48.562;13.384;2022-10-15T03:28:38;52.03;;;14.82;;
34433;SDS011;34290;48.562;13.384;2022-10-15T03:31:05;29.58;;;14.27;;
34433;SDS011;34290;48.562;13.384;2022-10-15T03:33:32;30.38;;;13.93;;
34433;SDS011;34290;48.562;13.384;2022-10-15T03:36:00;33.63;;;14.65;;
34433;SDS011;34290;48.562;13.384;2022-10-15T03:38:27;29.25;;;13.35;;
34433;SDS011;34290;48.562;13.384;2022-10-15T03:40:55;31.50;;;14.53;;
34433;SDS011;34290;48.562;13.384;2022-10-15T03:43:22;30.88;;;13.98;;
34433;SDS011;34290;48.562;13.384;2022-10-15T03:45:50;38.13;;;15.20;;
34433;SDS011;34290;48.562;13.384;2022-10-15T03:48:17;40.17;;;15.18;;
34433;SDS011;34290;48.562;13.384;2022-10-15T03:50:44;40.17;;;15.60;;
34433;SDS011;34290;48.562;13.384;2022-10-15T03:53:12;456.67;;;31.67;;
34433;SDS011;34290;48.562;13.384;2022-10-15T03:55:39;55.30;;;16.13;;
34433;SDS011;34290;48.562;13.384;2022-10-15T03:58:08;100.63;;;18.13;;
34433;SDS011;34290;48.562;13.384;2022-10-15T04:00:35;41.40;;;15.93;;
34433;SDS011;34290;48.562;13.384;2022-10-15T04:03:02;39.80;;;16.75;;
34433;SDS011;34290;48.562;13.384;2022-10-15T04:05:29;35.25;;;16.42;;
34433;SDS011;34290;48.562;13.384;2022-10-15T04:07:59;39.10;;;15.30;;
34433;SDS011;34290;48.562;13.384;2022-10-15T04:10:26;34.40;;;15.23;;
34433;SDS011;34290;48.562;13.384;2022-10-15T04:12:53;35.78;;;16.27;;
34433;SDS011;34290;48.562;13.384;2022-10-15T04:15:22;37.58;;;16.60;;
34433;SDS011;34290;48.562;13.384;2022-10-15T04:17:51;37.92;;;15.73;;
34433;SDS011;34290;48.562;13.384;2022-10-15T04:20:19;33.55;;;15.20;;
34433;SDS011;34290;48.562;13.384;2022-10-15T04:22:46;33.45;;;15.63;;
34433;SDS011;34290;48.562;13.384;2022-10-15T04:25:13;31.63;;;16.05;;
34433;SDS011;34290;48.562;13.384;2022-10-15T04:27:40;36.15;;;16.33;;
34433;SDS011;34290;48.562;13.384;2022-10-15T04:30:08;35.25;;;15.98;;
34433;SDS011;34290;48.562;13.384;2022-10-15T04:32:38;30.73;;;14.48;;
34433;SDS011;34290;48.562;13.384;2022-10-15T04:35:05;25.60;;;13.50;;
34433;SDS011;34290;48.562;13.384;2022-10-15T04:37:33;29.92;;;13.30;;
34433;SDS011;34290;48.562;13.384;2022-10-15T04:40:00;23.15;;;11.95;;
34433;SDS011;34290;48.562;13.384;2022-10-15T04:42:29;22.73;;;12.10;;
34433;SDS011;34290;48.562;13.384;2022-10-15T04:44:56;20.58;;;10.18;;
34433;SDS011;34290;48.562;13.384;2022-10-15T04:47:23;17.05;;;9.85;;
34433;SDS011;34290;48.562;13.384;2022-10-15T04:49:51;20.67;;;10.32;;
34433;SDS011;34290;48.562;13.384;2022-10-15T04:52:18;20.13;;;10.63;;
34433;SDS011;34290;48.562;13.384;2022-10-15T04:54:45;18.70;;;9.32;;
34433;SDS011;34290;48.562;13.384;2022-10-15T04:57:12;15.70;;;8.48;;
34433;SDS011;34290;48.562;13.384;2022-10-15T04:59:39;17.00;;;9.00;;
34433;SDS011;34290;48.562;13.384;2022-10-15T05:02:08;17.40;;;8.45;;
34433;SDS011;34290;48.562;13.384;2022-10-15T05:04:37;14.25;;;8.10;;
34433;SDS011;34290;48.562;13.384;2022-10-15T05:07:06;12.73;;;7.15;;
34433;SDS011;34290;48.562;13.384;2022-10-15T05:09:33;12.15;;;6.90;;
34433;SDS011;34290;48.562;13.384;2022-10-15T05:12:00;15.45;;;7.60;;
34433;SDS011;34290;48.562;13.384;2022-10-15T05:14:27;11.57;;;6.75;;
34433;SDS011;34290;48.562;13.384;2022-10-15T05:16:54;10.55;;;6.00;;
34433;SDS011;34290;48.562;13.384;2022-10-15T05:19:21;12.00;;;6.25;;
34433;SDS011;34290;48.562;13.384;2022-10-15T05:21:48;12.00;;;6.65;;
34433;SDS011;34290;48.562;13.384;2022-10-15T05:24:16;10.35;;;5.63;;
34433;SDS011;34290;48.562;13.384;2022-10-15T05:26:43;10.30;;;5.93;;
34433;SDS011;34290;48.562;13.384;2022-10-15T05:29:10;9.77;;;5.35;;
34433;SDS011;34290;48.562;13.384;2022-10-15T05:31:37;8.52;;;5.15;;
34433;SDS011;34290;48.562;13.384;2022-10-15T05:34:05;10.50;;;6.30;;
34433;SDS011;34290;48.562;13.384;2022-10-15T05:36:33;9.02;;;5.45;;
34433;SDS011;34290;48.562;13.384;2022-10-15T05:39:04;10.95;;;6.75;;
34433;SDS011;34290;48.562;13.384;2022-10-15T05:41:35;7.70;;;4.57;;
34433;SDS011;34290;48.562;13.384;2022-10-15T05:44:03;13.60;;;6.47;;
34433;SDS011;34290;48.562;13.384;2022-10-15T05:46:30;14.68;;;7.60;;
34433;SDS011;34290;48.562;13.384;2022-10-15T05:48:57;6.03;;;3.97;;
34433;SDS011;34290;48.562;13.384;2022-10-15T05:51:24;6.85;;;4.10;;
34433;SDS011;34290;48.562;13.384;2022-10-15T05:53:53;6.72;;;3.83;;
34433;SDS011;34290;48.562;13.384;2022-10-15T05:56:20;6.95;;;4.10;;
34433;SDS011;34290;48.562;13.384;2022-10-15T05:58:50;6.35;;;3.60;;
34433;SDS011;34290;48.562;13.384;2022-10-15T06:01:17;6.47;;;3.80;;
34433;SDS011;34290;48.562;13.384;2022-10-15T06:03:48;7.97;;;4.00;;
34433;SDS011;34290;48.562;13.384;2022-10-15T06:06:15;7.63;;;4.07;;
34433;SDS011;34290;48.562;13.384;2022-10-15T06:08:43;7.03;;;3.55;;
34433;SDS011;34290;48.562;13.384;2022-10-15T06:11:11;7.20;;;3.57;;
34433;SDS011;34290;48.562;13.384;2022-10-15T06:13:38;8.02;;;4.07;;
34433;SDS011;34290;48.562;13.384;2022-10-15T06:16:10;8.60;;;4.00;;
34433;SDS011;34290;48.562;13.384;2022-10-15T06:18:38;6.80;;;3.65;;
34433;SDS011;34290;48.562;13.384;2022-10-15T06:21:06;6.95;;;4.13;;
34433;SDS011;34290;48.562;13.384;2022-10-15T06:23:33;8.43;;;4.20;;
34433;SDS011;34290;48.562;13.384;2022-10-15T06:26:01;9.80;;;4.43;;
34433;SDS011;34290;48.562;13.384;2022-10-15T06:28:28;7.65;;;4.13;;
34433;SDS011;34290;48.562;13.384;2022-10-15T06:30:56;10.35;;;5.72;;
34433;SDS011;34290;48.562;13.384;2022-10-15T06:33:25;10.95;;;4.70;;
34433;SDS011;34290;48.562;13.384;2022-10-15T06:35:53;9.52;;;5.00;;
34433;SDS011;34290;48.562;13.384;2022-10-15T06:38:23;11.27;;;4.95;;
34433;SDS011;34290;48.562;13.384;2022-10-15T06:40:50;8.45;;;4.63;;
34433;SDS011;34290;48.562;13.384;2022-10-15T06:43:17;9.70;;;4.95;;
34433;SDS011;34290;48.562;13.384;2022-10-15T06:45:44;10.45;;;4.65;;
34433;SDS011;34290;48.562;13.384;2022-10-15T06:48:11;9.70;;;4.70;;
34433;SDS011;34290;48.562;13.384;2022-10-15T06:50:40;8.40;;;4.72;;
34433;SDS011;34290;48.562;13.384;2022-10-15T06:53:07;7.68;;;4.25;;
34433;SDS011;34290;48.562;13.384;2022-10-15T06:55:34;7.63;;;4.05;;
34433;SDS011;34290;48.562;13.384;2022-10-15T06:58:03;8.37;;;4.27;;
34433;SDS011;34290;48.562;13.384;2022-10-15T07:00:30;8.30;;;4.40;;
34433;SDS011;34290;48.562;13.384;2022-10-15T07:03:01;7.07;;;4.40;;
34433;SDS011;34290;48.562;13.384;2022-10-15T07:05:29;8.20;;;4.28;;
34433;SDS011;34290;48.562;13.384;2022-10-15T07:07:57;7.43;;;4.43;;
34433;SDS011;34290;48.562;13.384;2022-10-15T07:10:25;10.50;;;4.60;;
34433;SDS011;34290;48.562;13.384;2022-10-15T07:12:53;10.73;;;4.38;;
34433;SDS011;34290;48.562;13.384;2022-10-15T07:15:20;7.43;;;4.35;;
34433;SDS011;34290;48.562;13.384;2022-10-15T07:17:47;7.70;;;4.20;;
34433;SDS011;34290;48.562;13.384;2022-10-15T07:20:15;9.43;;;4.32;;
34433;SDS011;34290;48.562;13.384;2022-10-15T07:22:42;7.22;;;4.50;;
34433;SDS011;34290;48.562;13.384;2022-10-15T07:25:11;7.13;;;3.60;;
34433;SDS011;34290;48.562;13.384;2022-10-15T07:27:38;6.47;;;3.60;;
34433;SDS011;34290;48.562;13.384;2022-10-15T07:30:06;7.63;;;3.17;;
34433;SDS011;34290;48.562;13.384;2022-10-15T07:32:36;6.25;;;3.58;;
34433;SDS011;34290;48.562;13.384;2022-10-15T07:35:03;5.63;;;3.40;;
34433;SDS011;34290;48.562;13.384;2022-10-15T07:37:31;5.85;;;3.40;;
34433;SDS011;34290;48.562;13.384;2022-10-15T07:39:58;7.15;;;3.65;;
34433;SDS011;34290;48.562;13.384;2022-10-15T07:42:26;8.07;;;3.65;;
34433;SDS011;34290;48.562;13.384;2022-10-15T07:44:54;7.00;;;3.75;;
34433;SDS011;34290;48.562;13.384;2022-10-15T07:47:21;7.30;;;3.60;;
34433;SDS011;34290;48.562;13.384;2022-10-15T07:49:48;7.00;;;3.70;;
34433;SDS011;34290;48.562;13.384;2022-10-15T07:52:15;6.32;;;3.67;;
34433;SDS011;34290;48.562;13.384;2022-10-15T07:54:42;7.18;;;3.08;;
34433;SDS011;34290;48.562;13.384;2022-10-15T07:57:09;6.25;;;3.42;;
34433;SDS011;34290;48.562;13.384;2022-10-15T07:59:37;6.60;;;3.42;;
34433;SDS011;34290;48.562;13.384;2022-10-15T08:02:04;5.13;;;3.17;;
34433;SDS011;34290;48.562;13.384;2022-10-15T08:04:31;4.55;;;2.92;;
34433;SDS011;34290;48.562;13.384;2022-10-15T08:07:01;6.80;;;3.20;;
34433;SDS011;34290;48.562;13.384;2022-10-15T08:09:28;4.70;;;2.92;;
34433;SDS011;34290;48.562;13.384;2022-10-15T08:11:55;3.67;;;2.72;;
34433;SDS011;34290;48.562;13.384;2022-10-15T08:14:22;3.88;;;2.40;;
34433;SDS011;34290;48.562;13.384;2022-10-15T08:16:50;4.47;;;2.70;;
34433;SDS011;34290;48.562;13.384;2022-10-15T08:19:19;5.15;;;2.50;;
34433;SDS011;34290;48.562;13.384;2022-10-15T08:21:49;4.50;;;3.20;;
34433;SDS011;34290;48.562;13.384;2022-10-15T08:24:16;4.22;;;2.75;;
34433;SDS011;34290;48.562;13.384;2022-10-15T08:26:43;4.70;;;2.88;;
34433;SDS011;34290;48.562;13.384;2022-10-15T08:29:11;3.97;;;2.50;;
34433;SDS011;34290;48.562;13.384;2022-10-15T08:31:38;4.05;;;2.60;;
34433;SDS011;34290;48.562;13.384;2022-10-15T08:34:07;6.07;;;2.72;;
34433;SDS011;34290;48.562;13.384;2022-10-15T08:36:35;3.72;;;2.58;;
34433;SDS011;34290;48.562;13.384;2022-10-15T08:39:02;3.33;;;2.22;;
34433;SDS011;34290;48.562;13.384;2022-10-15T08:41:37;4.95;;;2.70;;
34433;SDS011;34290;48.562;13.384;2022-10-15T08:44:10;4.53;;;2.58;;
34433;SDS011;34290;48.562;13.384;2022-10-15T08:46:44;3.55;;;2.47;;
34433;SDS011;34290;48.562;13.384;2022-10-15T08:49:19;3.20;;;2.33;;
34433;SDS011;34290;48.562;13.384;2022-10-15T08:51:54;3.35;;;2.28;;
34433;SDS011;34290;48.562;13.384;2022-10-15T08:54:27;3.35;;;2.35;;
34433;SDS011;34290;48.562;13.384;2022-10-15T08:56:59;3.63;;;2.28;;
34433;SDS011;34290;48.562;13.384;2022-10-15T08:59:37;3.55;;;2.45;;
34433;SDS011;34290;48.562;13.384;2022-10-15T09:02:09;5.05;;;2.65;;
34433;SDS011;34290;48.562;13.384;2022-10-15T09:04:45;3.63;;;2.42;;
34433;SDS011;34290;48.562;13.384;2022-10-15T09:07:20;3.13;;;2.42;;
34433;SDS011;34290;48.562;13.384;2022-10-15T09:09:57;4.90;;;2.55;;
34433;SDS011;34290;48.562;13.384;2022-10-15T09:12:35;4.38;;;2.33;;
34433;SDS011;34290;48.562;13.384;2022-10-15T09:15:09;5.30;;;2.53;;
34433;SDS011;34290;48.562;13.384;2022-10-15T09:17:39;5.03;;;2.85;;
34433;SDS011;34290;48.562;13.384;2022-10-15T09:20:13;23.63;;;9.63;;
34433;SDS011;34290;48.562;13.384;2022-10-15T09:22:42;9.95;;;4.68;;
34433;SDS011;34290;48.562;13.384;2022-10-15T09:25:15;38.35;;;18.23;;
34433;SDS011;34290;48.562;13.384;2022-10-15T09:27:46;8.50;;;5.15;;
34433;SDS011;34290;48.562;13.384;2022-10-15T09:30:22;5.38;;;2.95;;
34433;SDS011;34290;48.562;13.384;2022-10-15T09:32:57;5.50;;;2.70;;
34433;SDS011;34290;48.562;13.384;2022-10-15T09:35:31;3.58;;;2.60;;
34433;SDS011;34290;48.562;13.384;2022-10-15T09:38:04;3.55;;;2.55;;
34433;SDS011;34290;48.562;13.384;2022-10-15T09:40:44;4.30;;;2.58;;
34433;SDS011;34290;48.562;13.384;2022-10-15T09:43:15;4.03;;;2.78;;
34433;SDS011;34290;48.562;13.384;2022-10-15T09:45:51;4.40;;;2.97;;
34433;SDS011;34290;48.562;13.384;2022-10-15T09:48:18;4.22;;;2.90;;
34433;SDS011;34290;48.562;13.384;2022-10-15T09:53:15;5.93;;;2.78;;
34433;SDS011;34290;48.562;13.384;2022-10-15T09:55:46;6.20;;;4.00;;
34433;SDS011;34290;48.562;13.384;2022-10-15T09:58:17;5.93;;;3.30;;
34433;SDS011;34290;48.562;13.384;2022-10-15T10:00:58;7.70;;;5.40;;
34433;SDS011;34290;48.562;13.384;2022-10-15T10:03:26;10.88;;;5.78;;
34433;SDS011;34290;48.562;13.384;2022-10-15T10:05:58;8.13;;;3.20;;
34433;SDS011;34290;48.562;13.384;2022-10-15T10:08:30;15.15;;;8.70;;
34433;SDS011;34290;48.562;13.384;2022-10-15T10:11:00;33.28;;;15.43;;
34433;SDS011;34290;48.562;13.384;2022-10-15T10:13:30;6.65;;;3.97;;
34433;SDS011;34290;48.562;13.384;2022-10-15T10:16:01;8.80;;;5.57;;
34433;SDS011;34290;48.562;13.384;2022-10-15T10:18:30;31.30;;;16.00;;
34433;SDS011;34290;48.562;13.384;2022-10-15T10:20:58;19.02;;;10.52;;
34433;SDS011;34290;48.562;13.384;2022-10-15T10:23:31;65.30;;;25.92;;
34433;SDS011;34290;48.562;13.384;2022-10-15T10:26:01;15.93;;;7.75;;
34433;SDS011;34290;48.562;13.384;2022-10-15T10:28:31;2.70;;;1.70;;
34433;SDS011;34290;48.562;13.384;2022-10-15T10:31:03;2.92;;;1.95;;
34433;SDS011;34290;48.562;13.384;2022-10-15T10:33:33;7.03;;;4.82;;
34433;SDS011;34290;48.562;13.384;2022-10-15T10:36:03;2.53;;;1.75;;
34433;SDS011;34290;48.562;13.384;2022-10-15T10:38:34;2.10;;;1.55;;
34433;SDS011;34290;48.562;13.384;2022-10-15T10:41:03;6.32;;;2.05;;
34433;SDS011;34290;48.562;13.384;2022-10-15T10:43:33;6.32;;;1.55;;
34433;SDS011;34290;48.562;13.384;2022-10-15T10:46:03;2.25;;;1.30;;
34433;SDS011;34290;48.562;13.384;2022-10-15T10:48:38;2.45;;;1.75;;
34433;SDS011;34290;48.562;13.384;2022-10-15T10:51:08;3.50;;;2.85;;
34433;SDS011;34290;48.562;13.384;2022-10-15T10:53:41;1.20;;;1.10;;
34433;SDS011;34290;48.562;13.384;2022-10-15T10:56:15;1.30;;;1.20;;
34433;SDS011;34290;48.562;13.384;2022-10-15T10:58:46;1.65;;;1.50;;
34433;SDS011;34290;48.562;13.384;2022-10-15T11:01:17;3.17;;;2.17;;
34433;SDS011;34290;48.562;13.384;2022-10-15T11:03:44;1.20;;;1.10;;
34433;SDS011;34290;48.562;13.384;2022-10-15T11:06:17;1.10;;;1.00;;
34433;SDS011;34290;48.562;13.384;2022-10-15T11:09:12;1.30;;;1.20;;
34433;SDS011;34290;48.562;13.384;2022-10-15T11:12:02;3.25;;;1.38;;
34433;SDS011;34290;48.562;13.384;2022-10-15T11:14:39;1.98;;;1.15;;
34433;SDS011;34290;48.562;13.384;2022-10-15T11:17:14;1.65;;;1.10;;
34433;SDS011;34290;48.562;13.384;2022-10-15T11:19:49;1.00;;;0.90;;
34433;SDS011;34290;48.562;13.384;2022-10-15T11:22:29;2.75;;;1.20;;
34433;SDS011;34290;48.562;13.384;2022-10-15T11:25:13;1.20;;;1.10;;
34433;SDS011;34290;48.562;13.384;2022-10-15T11:27:51;1.63;;;0.80;;
34433;SDS011;34290;48.562;13.384;2022-10-15T11:30:29;1.00;;;0.90;;
34433;SDS011;34290;48.562;13.384;2022-10-15T11:33:06;1.63;;;0.82;;
34433;SDS011;34290;48.562;13.384;2022-10-15T11:35:50;3.67;;;1.00;;
34433;SDS011;34290;48.562;13.384;2022-10-15T11:38:27;1.63;;;0.90;;
34433;SDS011;34290;48.562;13.384;2022-10-15T11:41:11;1.90;;;0.65;;
34433;SDS011;34290;48.562;13.384;2022-10-15T11:43:51;3.00;;;0.90;;
34433;SDS011;34290;48.562;13.384;2022-10-15T11:46:26;2.05;;;0.90;;
34433;SDS011;34290;48.562;13.384;2022-10-15T11:49:03;2.97;;;0.93;;
34433;SDS011;34290;48.562;13.384;2022-10-15T11:51:54;1.40;;;0.80;;
34433;SDS011;34290;48.562;13.384;2022-10-15T11:54:33;1.42;;;0.90;;
34433;SDS011;34290;48.562;13.384;2022-10-15T11:57:04;3.63;;;0.82;;
34433;SDS011;34290;48.562;13.384;2022-10-15T11:59:34;1.05;;;0.77;;
34433;SDS011;34290;48.562;13.384;2022-10-15T12:02:10;1.25;;;0.80;;
34433;SDS011;34290;48.562;13.384;2022-10-15T12:04:41;2.60;;;1.02;;
34433;SDS011;34290;48.562;13.384;2022-10-15T12:07:19;0.85;;;0.70;;
34433;SDS011;34290;48.562;13.384;2022-10-15T12:09:49;0.80;;;0.80;;
34433;SDS011;34290;48.562;13.384;2022-10-15T12:12:27;0.75;;;0.70;;
34433;SDS011;34290;48.562;13.384;2022-10-15T12:15:09;1.55;;;0.70;;
34433;SDS011;34290;48.562;13.384;2022-10-15T12:17:47;0.85;;;0.80;;
34433;SDS011;34290;48.562;13.384;2022-10-15T12:20:17;2.42;;;0.80;;
34433;SDS011;34290;48.562;13.384;2022-10-15T12:22:56;2.83;;;0.70;;
34433;SDS011;34290;48.562;13.384;2022-10-15T12:25:43;2.42;;;0.80;;
34433;SDS011;34290;48.562;13.384;2022-10-15T12:28:13;0.70;;;0.70;;
34433;SDS011;34290;48.562;13.384;2022-10-15T12:30:54;0.60;;;0.60;;
34433;SDS011;34290;48.562;13.384;2022-10-15T12:33:34;1.55;;;1.05;;
34433;SDS011;34290;48.562;13.384;2022-10-15T12:36:03;0.90;;;0.70;;
34433;SDS011;34290;48.562;13.384;2022-10-15T12:38:34;0.85;;;0.70;;
34433;SDS011;34290;48.562;13.384;2022-10-15T12:41:04;3.17;;;0.70;;
34433;SDS011;34290;48.562;13.384;2022-10-15T12:43:35;0.70;;;0.60;;
34433;SDS011;34290;48.562;13.384;2022-10-15T12:46:06;0.93;;;0.75;;
34433;SDS011;34290;48.562;13.384;2022-10-15T12:48:39;0.82;;;0.80;;
34433;SDS011;34290;48.562;13.384;2022-10-15T12:51:27;6.10;;;1.00;;
34433;SDS011;34290;48.562;13.384;2022-10-15T12:53:56;2.67;;;0.77;;
34433;SDS011;34290;48.562;13.384;2022-10-15T12:56:32;1.88;;;0.80;;
34433;SDS011;34290;48.562;13.384;2022-10-15T12:59:04;1.55;;;0.90;;
34433;SDS011;34290;48.562;13.384;2022-10-15T13:01:56;4.53;;;0.80;;
34433;SDS011;34290;48.562;13.384;2022-10-15T13:04:23;1.08;;;0.80;;
34433;SDS011;34290;48.562;13.384;2022-10-15T13:07:02;1.42;;;0.80;;
34433;SDS011;34290;48.562;13.384;2022-10-15T13:09:30;0.75;;;0.75;;
34433;SDS011;34290;48.562;13.384;2022-10-15T13:11:59;2.28;;;1.00;;
34433;SDS011;34290;48.562;13.384;2022-10-15T13:14:29;1.65;;;0.90;;
34433;SDS011;34290;48.562;13.384;2022-10-15T13:17:01;2.63;;;0.80;;
34433;SDS011;34290;48.562;13.384;2022-10-15T13:19:32;4.00;;;0.93;;
34433;SDS011;34290;48.562;13.384;2022-10-15T13:22:04;1.15;;;0.80;;
34433;SDS011;34290;48.562;13.384;2022-10-15T13:24:38;0.73;;;0.70;;
34433;SDS011;34290;48.562;13.384;2022-10-15T13:27:12;7.63;;;3.80;;
34433;SDS011;34290;48.562;13.384;2022-10-15T13:29:53;4.68;;;1.58;;
34433;SDS011;34290;48.562;13.384;2022-10-15T13:32:21;1.13;;;0.90;;
34433;SDS011;34290;48.562;13.384;2022-10-15T13:34:49;2.65;;;0.70;;
34433;SDS011;34290;48.562;13.384;2022-10-15T13:37:17;3.38;;;1.00;;
34433;SDS011;34290;48.562;13.384;2022-10-15T13:39:48;2.60;;;0.80;;
34433;SDS011;34290;48.562;13.384;2022-10-15T13:42:17;2.55;;;0.90;;
34433;SDS011;34290;48.562;13.384;2022-10-15T13:44:56;2.72;;;0.90;;
34433;SDS011;34290;48.562;13.384;2022-10-15T13:47:29;1.33;;;0.80;;
34433;SDS011;34290;48.562;13.384;2022-10-15T13:50:17;3.45;;;1.00;;
34433;SDS011;34290;48.562;13.384;2022-10-15T13:52:47;4.35;;;0.90;;
34433;SDS011;34290;48.562;13.384;2022-10-15T13:55:18;3.35;;;1.27;;
34433;SDS011;34290;48.562;13.384;2022-10-15T13:57:47;1.88;;;1.08;;
34433;SDS011;34290;48.562;13.384;2022-10-15T14:00:25;6.10;;;3.55;;
34433;SDS011;34290;48.562;13.384;2022-10-15T14:05:49;20.15;;;7.47;;
34433;SDS011;34290;48.562;13.384;2022-10-15T14:08:19;23.83;;;8.18;;
34433;SDS011;34290;48.562;13.384;2022-10-15T14:10:48;27.85;;;11.55;;
34433;SDS011;34290;48.562;13.384;2022-10-15T14:13:16;46.78;;;14.88;;
34433;SDS011;34290;48.562;13.384;2022-10-15T14:15:57;43.65;;;14.07;;
34433;SDS011;34290;48.562;13.384;2022-10-15T14:18:28;29.10;;;10.50;;
34433;SDS011;34290;48.562;13.384;2022-10-15T14:21:10;27.75;;;11.68;;
34433;SDS011;34290;48.562;13.384;2022-10-15T14:23:38;25.30;;;13.38;;
34433;SDS011;34290;48.562;13.384;2022-10-15T14:26:05;21.23;;;11.10;;
34433;SDS011;34290;48.562;13.384;2022-10-15T14:28:34;23.65;;;13.32;;
34433;SDS011;34290;48.562;13.384;2022-10-15T14:31:03;10.73;;;6.90;;
34433;SDS011;34290;48.562;13.384;2022-10-15T14:33:42;4.03;;;2.90;;
34433;SDS011;34290;48.562;13.384;2022-10-15T14:39:26;5.50;;;1.40;;
34433;SDS011;34290;48.562;13.384;2022-10-15T14:41:56;3.45;;;1.30;;
34433;SDS011;34290;48.562;13.384;2022-10-15T14:44:24;3.60;;;1.23;;
34433;SDS011;34290;48.562;13.384;2022-10-15T14:46:58;5.20;;;1.23;;
34433;SDS011;34290;48.562;13.384;2022-10-15T14:49:27;2.28;;;1.10;;
34433;SDS011;34290;48.562;13.384;2022-10-15T14:51:58;1.33;;;0.90;;
34433;SDS011;34290;48.562;13.384;2022-10-15T14:54:35;6.75;;;1.48;;
34433;SDS011;34290;48.562;13.384;2022-10-15T14:57:10;10.18;;;2.30;;